Terminal Aerodrome Forecast
Issued by NWS Columbia, SC

Home | Current Version | Previous Version | Text Only | Print | Product List | Glossary On
Versions: 1 2 3 4 5 6 7 8 9 10 11 12 13 14 15 16 17 18 19 20 21 22 23 24 25 26 27 28 29 30 31 32 33 34 35 36 37 38 39 40 41 42 43
872
FTUS42 KCAE 221145 RRA
TAFAGS
TAF
KAGS 221145Z 2212/2312 00000KT P6SM SCT045 BKN250
     FM222100 10006KT P6SM BKN045
     FM230100 10003KT P6SM OVC015
     FM230800 09004KT 4SM BR VCSH OVC005=

USA.gov is the U.S. government's official web portal to all federal, state and local government web resources and services.